Time;durP1;ratioP1;P1;durP2;ratioP2;P2;SDS_P1;SDS_P2;PMS_P1;PMS_P2;Temp;Humidity;BMP_temperature;BMP_pressure;BME280_temperature;BME280_humidity;BME280_pressure;Samples;Min_cycle;Max_cycle;Signal;HPM_P1;HPM_P2
2022/07/19 00:00:07;;;;;;;12.30;4.85;;;18.80;99.90;;;;;;5061200;28;20040;-72
2022/07/19 00:02:33;;;;;;;13.98;5.20;;;18.80;99.90;;;;;;5061640;28;20688;-72
2022/07/19 00:04:59;;;;;;;8.00;4.20;;;18.80;99.90;;;;;;5058028;28;20056;-72
2022/07/19 00:07:24;;;;;;;12.30;4.78;;;18.70;99.90;;;;;;5057739;28;20499;-72
2022/07/19 00:09:50;;;;;;;7.80;4.15;;;18.70;99.90;;;;;;5058778;28;20033;-72
2022/07/19 00:12:16;;;;;;;9.60;4.28;;;18.60;99.90;;;;;;5061043;28;20048;-72
2022/07/19 00:14:41;;;;;;;8.48;4.00;;;18.70;99.90;;;;;;5060968;28;20543;-71
2022/07/19 00:17:07;;;;;;;9.27;4.13;;;18.60;99.90;;;;;;5055287;28;20116;-72
2022/07/19 00:19:32;;;;;;;6.57;4.25;;;18.60;99.90;;;;;;5058236;28;20040;-72
2022/07/19 00:21:58;;;;;;;7.55;3.85;;;18.60;99.90;;;;;;5057855;28;20123;-72
2022/07/19 00:24:24;;;;;;;13.07;4.07;;;18.50;99.90;;;;;;5061248;28;20037;-71
2022/07/19 00:26:49;;;;;;;7.25;4.15;;;18.50;99.90;;;;;;5060956;28;20044;-72
2022/07/19 00:29:15;;;;;;;7.75;4.38;;;18.50;99.90;;;;;;5057865;28;20099;-72
2022/07/19 00:31:40;;;;;;;9.45;4.55;;;18.60;99.90;;;;;;5056806;28;20040;-72
2022/07/19 00:34:06;;;;;;;9.43;4.20;;;18.60;99.90;;;;;;5058739;28;20045;-72
2022/07/19 00:36:32;;;;;;;6.75;3.88;;;18.40;99.90;;;;;;5056214;28;20126;-71
2022/07/19 00:38:57;;;;;;;11.18;4.03;;;18.50;99.90;;;;;;5058192;28;20413;-72
2022/07/19 00:41:23;;;;;;;8.73;4.50;;;18.60;99.90;;;;;;5060977;28;20044;-72
2022/07/19 00:43:50;;;;;;;8.00;4.38;;;18.50;99.90;;;;;;5061213;28;20123;-73
2022/07/19 00:46:20;;;;;;;10.65;4.93;;;18.50;99.90;;;;;;5056737;28;20041;-72
2022/07/19 00:48:46;;;;;;;6.75;4.15;;;18.40;99.90;;;;;;5057818;28;20424;-72
2022/07/19 00:51:14;;;;;;;8.10;4.45;;;18.40;99.90;;;;;;5059961;28;20044;-72
2022/07/19 00:53:40;;;;;;;11.23;5.25;;;18.40;99.90;;;;;;5060835;28;20446;-72
2022/07/19 00:56:07;;;;;;;9.10;4.60;;;18.50;99.90;;;;;;5059374;28;20399;-72
2022/07/19 00:58:35;;;;;;;8.07;4.50;;;18.50;99.90;;;;;;5057735;28;20056;-72
2022/07/19 01:01:02;;;;;;;9.52;4.68;;;18.50;99.90;;;;;;5060601;28;20045;-72
2022/07/19 01:03:28;;;;;;;10.15;4.85;;;18.40;99.90;;;;;;5064674;28;20040;-72
2022/07/19 01:05:53;;;;;;;8.07;4.57;;;18.30;99.90;;;;;;5064377;28;20763;-71
2022/07/19 01:08:19;;;;;;;10.00;4.82;;;18.30;99.90;;;;;;5063285;28;20102;-72
2022/07/19 01:10:45;;;;;;;16.35;4.97;;;18.20;99.90;;;;;;5064443;28;20118;-72
2022/07/19 01:13:14;;;;;;;7.15;4.80;;;18.20;99.90;;;;;;5061692;28;20059;-72
2022/07/19 01:15:40;;;;;;;10.10;4.35;;;18.30;99.90;;;;;;5061203;28;20045;-72
2022/07/19 01:18:06;;;;;;;7.28;4.40;;;18.30;99.90;;;;;;5060950;28;20067;-72
2022/07/19 01:20:32;;;;;;;7.35;4.55;;;18.30;99.90;;;;;;5061081;28;20071;-72
2022/07/19 01:22:58;;;;;;;6.38;3.97;;;18.20;99.90;;;;;;5041844;28;20068;-72
2022/07/19 01:25:29;;;;;;;8.52;4.60;;;18.30;99.90;;;;;;5062779;28;20491;-72
2022/07/19 01:27:55;;;;;;;8.52;3.78;;;18.10;99.90;;;;;;5064498;28;20078;-72
2022/07/19 01:30:23;;;;;;;7.45;4.10;;;18.10;99.90;;;;;;5062767;28;20491;-72
2022/07/19 01:32:49;;;;;;;12.65;5.03;;;18.10;99.90;;;;;;5060743;28;20051;-72
2022/07/19 01:35:15;;;;;;;6.72;4.03;;;18.00;99.90;;;;;;5061284;28;20139;-72
2022/07/19 01:37:42;;;;;;;9.27;4.25;;;17.90;99.90;;;;;;5064154;28;20045;-71
2022/07/19 01:40:10;;;;;;;9.60;4.07;;;18.00;99.90;;;;;;5063909;28;20098;-72
2022/07/19 01:42:36;;;;;;;7.80;3.92;;;17.90;99.90;;;;;;5063176;28;20040;-72
2022/07/19 01:45:02;;;;;;;7.40;4.75;;;17.90;99.90;;;;;;5063113;28;20052;-72
2022/07/19 01:47:28;;;;;;;9.70;4.40;;;17.90;99.90;;;;;;5063813;28;20084;-73
2022/07/19 01:49:54;;;;;;;8.48;4.97;;;17.80;99.90;;;;;;5063676;28;20080;-71
2022/07/19 01:52:19;;;;;;;7.75;4.40;;;17.70;99.90;;;;;;5062102;28;20040;-71
2022/07/19 01:54:45;;;;;;;11.73;4.57;;;17.90;99.90;;;;;;5060273;28;20052;-72
2022/07/19 01:57:10;;;;;;;8.07;4.55;;;17.70;99.90;;;;;;5060306;28;20040;-72
2022/07/19 01:59:37;;;;;;;8.35;4.30;;;17.60;99.90;;;;;;5062654;28;20091;-72
2022/07/19 02:02:03;;;;;;;9.50;4.32;;;17.50;99.90;;;;;;5063837;28;20086;-72
2022/07/19 02:04:29;;;;;;;10.10;4.57;;;17.40;99.90;;;;;;5062217;28;20037;-72
2022/07/19 02:06:55;;;;;;;11.27;4.05;;;17.40;99.90;;;;;;5060231;28;20099;-72
2022/07/19 02:09:20;;;;;;;9.90;3.90;;;17.40;99.90;;;;;;5060201;28;20460;-72
2022/07/19 02:11:46;;;;;;;6.65;4.00;;;17.30;99.90;;;;;;5058397;28;20617;-72
2022/07/19 02:14:12;;;;;;;9.13;4.22;;;17.30;99.90;;;;;;5060104;28;20049;-72
2022/07/19 02:16:39;;;;;;;9.43;4.30;;;17.30;99.90;;;;;;5061688;28;20048;-71
2022/07/19 02:19:05;;;;;;;9.05;4.40;;;17.30;99.90;;;;;;5058215;28;20053;-72
2022/07/19 02:21:32;;;;;;;6.15;4.13;;;17.20;99.90;;;;;;5059577;28;20041;-72
2022/07/19 02:23:57;;;;;;;6.18;3.85;;;17.20;99.90;;;;;;5063157;28;20465;-72
2022/07/19 02:26:23;;;;;;;8.73;4.60;;;17.30;99.90;;;;;;5062696;28;20044;-72
2022/07/19 02:28:49;;;;;;;7.45;4.15;;;17.30;99.90;;;;;;5060326;28;20472;-71
2022/07/19 02:31:15;;;;;;;11.65;4.82;;;17.30;99.90;;;;;;5066047;28;20036;-71
2022/07/19 02:33:41;;;;;;;10.85;4.53;;;17.30;99.90;;;;;;5061878;28;20433;-72
2022/07/19 02:36:06;;;;;;;11.93;4.50;;;17.30;99.90;;;;;;5059839;28;20110;-72
2022/07/19 02:38:32;;;;;;;8.15;4.00;;;17.20;99.90;;;;;;5059964;28;20041;-71
2022/07/19 02:40:58;;;;;;;8.52;4.70;;;17.20;99.90;;;;;;5061785;28;20044;-72
2022/07/19 02:43:24;;;;;;;10.02;4.00;;;17.10;99.90;;;;;;5062757;28;20044;-72
2022/07/19 02:45:49;;;;;;;11.20;4.78;;;17.10;99.90;;;;;;5060420;28;20039;-72
2022/07/19 02:48:15;;;;;;;11.07;4.72;;;17.10;99.90;;;;;;5059245;28;20397;-72
2022/07/19 02:50:41;;;;;;;10.30;4.70;;;17.00;99.90;;;;;;5059782;28;20037;-72
2022/07/19 02:53:07;;;;;;;9.45;4.00;;;17.00;99.90;;;;;;5060961;28;20066;-73
2022/07/19 02:55:32;;;;;;;7.00;4.25;;;16.90;99.90;;;;;;5055522;28;20044;-72
2022/07/19 02:57:58;;;;;;;10.43;4.18;;;17.00;99.90;;;;;;5061228;28;20052;-72
2022/07/19 03:00:24;;;;;;;12.77;4.82;;;16.90;99.90;;;;;;5061215;28;20044;-72
2022/07/19 03:02:50;;;;;;;10.75;4.05;;;16.90;99.90;;;;;;5060836;28;20040;-72
2022/07/19 03:05:15;;;;;;;12.82;3.90;;;16.90;99.90;;;;;;5058922;28;20048;-72
2022/07/19 03:07:41;;;;;;;10.05;4.38;;;16.90;99.90;;;;;;5059015;28;20040;-70
2022/07/19 03:10:08;;;;;;;7.35;4.32;;;16.90;99.90;;;;;;5058951;28;20399;-72
2022/07/19 03:12:34;;;;;;;8.00;4.75;;;17.00;99.90;;;;;;5058719;28;20052;-72
2022/07/19 03:14:59;;;;;;;8.88;4.78;;;17.00;99.90;;;;;;5060544;28;20505;-71
2022/07/19 03:17:25;;;;;;;11.77;4.63;;;17.00;99.90;;;;;;5062174;28;20178;-72
2022/07/19 03:19:50;;;;;;;8.60;4.63;;;17.10;99.90;;;;;;5061209;28;20037;-71
2022/07/19 03:22:16;;;;;;;11.57;4.72;;;17.20;99.90;;;;;;5056807;28;20036;-72
2022/07/19 03:24:42;;;;;;;9.77;4.78;;;17.20;99.90;;;;;;5057837;28;20513;-72
2022/07/19 03:27:07;;;;;;;9.18;4.90;;;17.20;99.90;;;;;;5058919;28;20056;-72
2022/07/19 03:29:33;;;;;;;9.77;4.13;;;17.20;99.90;;;;;;5058322;28;20701;-72
2022/07/19 03:31:58;;;;;;;8.85;4.75;;;17.20;99.90;;;;;;5051154;28;20079;-72
2022/07/19 03:34:26;;;;;;;10.38;4.10;;;17.20;99.90;;;;;;5061846;28;20117;-72
2022/07/19 03:36:51;;;;;;;7.70;4.10;;;17.20;99.90;;;;;;5060850;28;20037;-72
2022/07/19 03:39:17;;;;;;;13.00;4.72;;;17.20;99.90;;;;;;5058453;28;20037;-72
2022/07/19 03:41:43;;;;;;;10.40;4.32;;;17.20;99.90;;;;;;5058147;28;20037;-72
2022/07/19 03:44:08;;;;;;;8.48;4.40;;;17.10;99.90;;;;;;5058866;28;20487;-73
2022/07/19 03:46:34;;;;;;;10.52;4.50;;;17.10;99.90;;;;;;5061847;28;20379;-72
2022/07/19 03:49:00;;;;;;;10.75;4.53;;;17.10;99.90;;;;;;5061208;28;20068;-70
2022/07/19 03:51:25;;;;;;;8.43;4.40;;;17.10;99.90;;;;;;5058171;28;20503;-72
2022/07/19 03:53:51;;;;;;;10.63;3.65;;;17.20;99.90;;;;;;5057981;28;20136;-72
2022/07/19 03:56:20;;;;;;;9.85;4.25;;;17.10;99.90;;;;;;5059659;28;20128;-72
2022/07/19 03:58:48;;;;;;;11.05;4.30;;;17.10;99.90;;;;;;5060908;28;20048;-72
2022/07/19 04:01:14;;;;;;;8.07;4.28;;;17.20;99.90;;;;;;5059758;28;20071;-72
2022/07/19 04:03:40;;;;;;;8.07;4.35;;;17.10;99.90;;;;;;5057985;28;20052;-72
2022/07/19 04:06:07;;;;;;;8.52;3.72;;;17.10;99.90;;;;;;5065061;28;20053;-71
2022/07/19 04:08:34;;;;;;;12.05;3.97;;;17.20;99.90;;;;;;5058297;28;20037;-72
2022/07/19 04:10:59;;;;;;;11.50;4.53;;;16.90;99.90;;;;;;5055982;28;20045;-72
2022/07/19 04:13:25;;;;;;;8.07;3.97;;;17.00;99.90;;;;;;5057451;28;20048;-72
2022/07/19 04:15:51;;;;;;;10.35;4.80;;;17.00;99.90;;;;;;5057402;28;20041;-72
2022/07/19 04:18:16;;;;;;;6.60;3.60;;;17.00;99.90;;;;;;5057643;28;20384;-71
2022/07/19 04:20:42;;;;;;;13.32;4.18;;;16.90;99.90;;;;;;5061229;28;20059;-71
2022/07/19 04:23:08;;;;;;;11.05;4.05;;;17.00;99.90;;;;;;5061157;28;20035;-71
2022/07/19 04:25:34;;;;;;;10.27;4.43;;;17.00;99.90;;;;;;5059112;28;20056;-71
2022/07/19 04:28:01;;;;;;;8.50;4.00;;;16.90;99.90;;;;;;5061015;28;20543;-72
2022/07/19 04:30:27;;;;;;;9.20;4.10;;;17.00;99.90;;;;;;5058089;28;20089;-72
2022/07/19 04:32:53;;;;;;;8.02;4.43;;;16.90;99.90;;;;;;5057658;28;20041;-73
2022/07/19 04:35:19;;;;;;;9.80;3.80;;;16.90;99.90;;;;;;5060026;28;20052;-72
2022/07/19 04:37:44;;;;;;;8.93;3.88;;;16.90;99.90;;;;;;5065077;28;20036;-72
2022/07/19 04:40:10;;;;;;;8.77;4.38;;;17.00;99.90;;;;;;5065024;28;20044;-73
2022/07/19 04:42:36;;;;;;;9.48;4.32;;;16.90;99.90;;;;;;5056895;28;20131;-72
2022/07/19 04:45:02;;;;;;;17.50;4.10;;;16.90;99.90;;;;;;5064512;28;20055;-72
2022/07/19 04:47:27;;;;;;;8.93;4.63;;;17.00;99.90;;;;;;5063176;28;20046;-73
2022/07/19 04:49:53;;;;;;;10.98;4.53;;;17.10;99.90;;;;;;5061526;28;20072;-72
2022/07/19 04:52:19;;;;;;;9.18;4.47;;;17.10;99.90;;;;;;5061202;28;20128;-71
2022/07/19 04:54:44;;;;;;;8.70;4.22;;;17.10;99.90;;;;;;5053596;28;20044;-73
2022/07/19 04:57:10;;;;;;;6.93;4.22;;;17.20;99.90;;;;;;5060030;28;20565;-72
2022/07/19 04:59:35;;;;;;;7.68;3.90;;;17.30;99.90;;;;;;5061684;28;20053;-72
2022/07/19 05:02:01;;;;;;;8.43;4.63;;;17.40;99.90;;;;;;5063493;28;20045;-73
2022/07/19 05:04:27;;;;;;;8.38;3.72;;;17.50;99.90;;;;;;5063820;28;20483;-73
2022/07/19 05:06:56;;;;;;;7.85;4.47;;;17.50;99.90;;;;;;5061325;28;20219;-71
2022/07/19 05:09:24;;;;;;;10.10;4.18;;;17.60;99.90;;;;;;5059758;28;20114;-72
2022/07/19 05:11:50;;;;;;;6.53;4.00;;;17.80;99.90;;;;;;5064338;28;20053;-73
2022/07/19 05:14:15;;;;;;;8.85;4.30;;;17.70;99.90;;;;;;5064382;28;20415;-72
2022/07/19 05:16:41;;;;;;;7.75;4.03;;;17.80;99.90;;;;;;5060167;28;20048;-72
2022/07/19 05:19:07;;;;;;;7.60;4.13;;;18.00;99.90;;;;;;5061437;28;20041;-73
2022/07/19 05:21:33;;;;;;;9.82;4.40;;;17.90;99.90;;;;;;5061206;28;20052;-73
2022/07/19 05:23:58;;;;;;;6.75;3.63;;;18.00;99.90;;;;;;5062979;28;20055;-72
2022/07/19 05:26:24;;;;;;;8.88;4.10;;;18.10;99.90;;;;;;5064280;28;20040;-73
2022/07/19 05:28:50;;;;;;;10.05;4.20;;;18.20;99.90;;;;;;5061166;28;20038;-72
2022/07/19 05:31:15;;;;;;;9.35;3.97;;;18.30;99.90;;;;;;5060361;28;20407;-72
2022/07/19 05:33:42;;;;;;;7.80;4.47;;;18.40;99.90;;;;;;5066908;28;20048;-73
2022/07/19 05:36:10;;;;;;;10.48;4.47;;;18.40;99.90;;;;;;5060521;28;20109;-73
2022/07/19 05:38:38;;;;;;;6.38;3.80;;;18.50;99.90;;;;;;5058525;28;20087;-73
2022/07/19 05:41:04;;;;;;;9.73;4.18;;;18.70;99.90;;;;;;5059369;28;20574;-73
2022/07/19 05:43:29;;;;;;;6.18;3.72;;;18.80;99.90;;;;;;5060478;28;20052;-73
2022/07/19 05:45:55;;;;;;;11.40;4.07;;;18.90;99.90;;;;;;5061181;28;20052;-73
2022/07/19 05:48:20;;;;;;;9.13;4.30;;;19.10;99.90;;;;;;5063501;28;20091;-73
2022/07/19 05:50:46;;;;;;;8.95;4.28;;;19.20;99.90;;;;;;5062217;28;20055;-72
2022/07/19 05:53:12;;;;;;;8.35;3.80;;;19.30;99.90;;;;;;5060227;28;20036;-73
2022/07/19 05:55:37;;;;;;;7.50;4.03;;;19.50;99.90;;;;;;5060291;28;20049;-73
2022/07/19 05:58:03;;;;;;;9.05;3.88;;;19.60;99.90;;;;;;5062969;28;20055;-73
2022/07/19 06:00:29;;;;;;;7.22;3.67;;;19.80;99.90;;;;;;5062032;28;20380;-72
2022/07/19 06:02:54;;;;;;;11.63;4.40;;;19.90;99.90;;;;;;5059429;28;20097;-73
2022/07/19 06:05:20;;;;;;;11.35;3.70;;;20.10;99.90;;;;;;5059982;28;20080;-73
2022/07/19 06:07:46;;;;;;;12.30;4.10;;;20.20;99.90;;;;;;5060522;28;20045;-73
2022/07/19 06:10:11;;;;;;;9.98;3.67;;;20.30;99.90;;;;;;5063236;28;20383;-73
2022/07/19 06:12:37;;;;;;;11.23;4.03;;;20.50;99.90;;;;;;5062116;28;20059;-74
2022/07/19 06:15:03;;;;;;;9.32;3.90;;;20.70;99.90;;;;;;5060546;28;20091;-74
2022/07/19 06:17:29;;;;;;;7.15;3.67;;;20.80;99.90;;;;;;5054745;28;20083;-74
2022/07/19 06:19:55;;;;;;;10.50;3.67;;;21.00;99.90;;;;;;5058538;28;20056;-74
2022/07/19 06:22:20;;;;;;;9.45;3.65;;;21.10;99.90;;;;;;5058061;28;20044;-74
2022/07/19 06:24:46;;;;;;;5.75;3.20;;;21.30;99.90;;;;;;5058528;28;20045;-74
2022/07/19 06:27:11;;;;;;;10.45;4.65;;;21.40;99.90;;;;;;5051127;28;20037;-75
2022/07/19 06:29:37;;;;;;;8.73;3.80;;;21.50;99.90;;;;;;5074093;28;20474;-74
2022/07/19 06:32:03;;;;;;;8.70;3.38;;;21.70;99.90;;;;;;5055437;28;20037;-75
2022/07/19 06:34:29;;;;;;;7.20;3.10;;;21.90;99.90;;;;;;5059109;28;20049;-75
2022/07/19 06:36:54;;;;;;;10.07;3.40;;;22.00;99.90;;;;;;5060703;28;20400;-76
2022/07/19 06:39:20;;;;;;;5.95;3.83;;;22.20;99.90;;;;;;5063643;28;20037;-75
2022/07/19 06:41:47;;;;;;;9.52;3.90;;;22.30;99.90;;;;;;5066316;28;20041;-75
2022/07/19 06:44:13;;;;;;;9.50;3.65;;;22.50;99.90;;;;;;5068253;28;20052;-75
2022/07/19 06:46:38;;;;;;;11.38;3.40;;;22.70;99.90;;;;;;5061265;28;20123;-74
2022/07/19 06:49:04;;;;;;;6.53;3.35;;;22.90;99.90;;;;;;5046286;28;20117;-75
2022/07/19 06:51:30;;;;;;;9.43;3.33;;;23.00;99.90;;;;;;5062703;28;20519;-73
2022/07/19 06:53:56;;;;;;;6.20;2.92;;;23.30;99.90;;;;;;5055310;28;20052;-76
2022/07/19 06:56:21;;;;;;;8.95;3.47;;;23.50;99.90;;;;;;5059316;28;20411;-75
2022/07/19 06:58:47;;;;;;;8.02;3.70;;;23.80;99.90;;;;;;5051488;28;20071;-75
2022/07/19 07:01:13;;;;;;;7.00;3.10;;;24.00;99.90;;;;;;5062588;28;20134;-75
2022/07/19 07:03:39;;;;;;;18.63;3.25;;;24.30;99.90;;;;;;5062090;28;20076;-75
2022/07/19 07:06:06;;;;;;;8.73;2.97;;;24.50;99.90;;;;;;5055963;28;20071;-78
2022/07/19 07:08:31;;;;;;;7.95;3.30;;;24.80;99.90;;;;;;5064319;28;20090;-71
2022/07/19 07:10:57;;;;;;;7.05;3.13;;;25.10;99.90;;;;;;5060413;28;20044;-75
2022/07/19 07:13:23;;;;;;;7.60;3.33;;;25.30;99.90;;;;;;5058670;28;20385;-77
2022/07/19 07:15:48;;;;;;;8.05;3.00;;;25.60;99.90;;;;;;5051957;28;20056;-77
2022/07/19 07:18:14;;;;;;;7.50;3.42;;;25.80;99.90;;;;;;5055417;28;20060;-82
2022/07/19 07:20:40;;;;;;;8.85;3.45;;;26.20;99.90;;;;;;5053190;28;20111;-75
2022/07/19 07:23:06;;;;;;;8.77;3.55;;;26.40;99.90;;;;;;5064258;28;20040;-74
2022/07/19 07:25:32;;;;;;;7.57;3.00;;;26.60;99.90;;;;;;5058665;28;20472;-75
2022/07/19 07:27:57;;;;;;;8.82;3.22;;;26.80;99.90;;;;;;5057472;28;20136;-74
2022/07/19 07:30:23;;;;;;;6.50;3.25;;;27.00;99.90;;;;;;5059557;28;20233;-77
2022/07/19 07:32:49;;;;;;;6.88;2.97;;;27.10;99.90;;;;;;5061725;28;20537;-77
2022/07/19 07:35:14;;;;;;;10.50;2.88;;;27.30;99.90;;;;;;5057008;28;20060;-74
2022/07/19 07:37:40;;;;;;;7.75;3.20;;;27.40;99.90;;;;;;5058392;28;20419;-79
2022/07/19 07:40:06;;;;;;;8.80;3.00;;;27.60;99.90;;;;;;5056507;28;20092;-71
2022/07/19 07:42:32;;;;;;;8.15;2.90;;;27.70;99.90;;;;;;5061555;28;20052;-74
2022/07/19 07:44:59;;;;;;;8.90;2.78;;;27.80;99.90;;;;;;5061697;28;20492;-72
2022/07/19 07:47:24;;;;;;;9.25;3.33;;;28.10;99.90;;;;;;5050670;28;20074;-72
2022/07/19 07:49:50;;;;;;;7.32;2.83;;;28.30;99.90;;;;;;5058012;28;20407;-73
2022/07/19 07:52:16;;;;;;;9.18;3.35;;;28.40;99.90;;;;;;5058495;28;20052;-76
2022/07/19 07:54:41;;;;;;;7.10;2.95;;;28.70;99.90;;;;;;5061260;28;20402;-81
2022/07/19 07:57:08;;;;;;;9.70;3.00;;;28.80;99.90;;;;;;5060673;28;20041;-79
2022/07/19 07:59:34;;;;;;;5.95;2.85;;;29.20;99.90;;;;;;5058258;28;20047;-77
2022/07/19 08:01:59;;;;;;;7.80;3.00;;;29.30;99.70;;;;;;5058262;28;20041;-77
2022/07/19 08:04:26;;;;;;;4.85;3.05;;;29.50;99.50;;;;;;5058147;28;20401;-80
2022/07/19 08:06:51;;;;;;;7.30;2.80;;;29.70;98.90;;;;;;5057661;28;20076;-70
2022/07/19 08:09:17;;;;;;;5.22;2.40;;;29.80;98.60;;;;;;5053769;28;20503;-70
2022/07/19 08:11:42;;;;;;;10.93;2.80;;;30.00;98.30;;;;;;5060669;28;20134;-71
2022/07/19 08:14:08;;;;;;;9.45;2.42;;;30.20;98.00;;;;;;5060799;28;20074;-74
2022/07/19 08:16:34;;;;;;;8.00;2.53;;;30.30;97.50;;;;;;5057738;28;20040;-73
2022/07/19 08:19:00;;;;;;;8.98;2.60;;;30.40;97.30;;;;;;5057646;28;20110;-73
2022/07/19 08:21:26;;;;;;;10.13;2.78;;;30.40;96.90;;;;;;5059702;28;20048;-76
2022/07/19 08:23:53;;;;;;;7.90;2.35;;;30.60;96.40;;;;;;5055308;28;20049;-73
2022/07/19 08:26:22;;;;;;;8.45;2.40;;;30.80;95.80;;;;;;5064904;28;20056;-81
2022/07/19 08:28:48;;;;;;;4.53;2.10;;;30.80;95.40;;;;;;5057719;28;20045;-76
2022/07/19 08:31:17;;;;;;;9.18;2.40;;;31.00;95.20;;;;;;5057099;28;20057;-81
2022/07/19 08:33:43;;;;;;;7.53;2.78;;;31.10;94.90;;;;;;5060734;28;20533;-79
2022/07/19 08:36:12;;;;;;;5.35;2.67;;;31.30;94.90;;;;;;5061128;28;20045;-80
2022/07/19 08:38:38;;;;;;;5.88;2.25;;;31.50;94.70;;;;;;5059651;28;20487;-71
2022/07/19 08:41:04;;;;;;;5.80;2.33;;;31.60;94.10;;;;;;5054590;28;20045;-71
2022/07/19 08:43:30;;;;;;;5.75;2.28;;;31.70;93.50;;;;;;5059342;28;20047;-72
2022/07/19 08:46:00;;;;;;;5.18;2.72;;;31.90;93.60;;;;;;5060807;28;20167;-71
2022/07/19 08:48:30;;;;;;;7.13;2.03;;;32.00;92.30;;;;;;5059472;28;20059;-70
2022/07/19 08:50:56;;;;;;;5.95;2.20;;;32.20;93.10;;;;;;5057164;28;20167;-71
2022/07/19 08:53:23;;;;;;;6.25;2.08;;;32.20;92.70;;;;;;5057341;28;20048;-70
2022/07/19 08:55:49;;;;;;;6.90;1.88;;;32.40;92.50;;;;;;5060773;28;20047;-72
2022/07/19 08:58:15;;;;;;;5.05;1.85;;;32.60;92.30;;;;;;5060761;28;20514;-71
2022/07/19 09:00:41;;;;;;;8.18;1.90;;;32.60;91.40;;;;;;5057926;28;20120;-71
2022/07/19 09:03:07;;;;;;;7.00;2.00;;;32.70;90.90;;;;;;5057255;28;20506;-71
2022/07/19 09:05:34;;;;;;;4.38;1.70;;;32.80;90.10;;;;;;5057682;28;20052;-71
2022/07/19 09:08:07;;;;;;;5.20;1.73;;;33.00;89.50;;;;;;5055759;28;20076;-73
2022/07/19 09:10:35;;;;;;;6.78;1.95;;;33.10;88.40;;;;;;5052635;28;20049;-73
2022/07/19 09:13:04;;;;;;;3.13;1.35;;;33.20;88.50;;;;;;5068324;28;20059;-73
2022/07/19 09:15:37;;;;;;;4.10;1.45;;;33.10;86.50;;;;;;5051315;28;20053;-73
2022/07/19 09:18:12;;;;;;;8.73;1.70;;;33.20;84.30;;;;;;5031805;28;20048;-72
2022/07/19 09:20:39;;;;;;;7.93;1.90;;;33.30;82.30;;;;;;5051897;28;20048;-73
2022/07/19 09:23:05;;;;;;;5.60;1.70;;;33.30;84.30;;;;;;5072838;28;20040;-72
2022/07/19 09:25:43;;;;;;;4.55;2.10;;;33.50;83.30;;;;;;5072090;28;20399;-71
2022/07/19 09:28:09;;;;;;;4.30;1.33;;;33.50;81.30;;;;;;5071907;28;20056;-69
2022/07/19 09:30:38;;;;;;;9.25;1.80;;;33.60;82.30;;;;;;5051779;28;20543;-69
2022/07/19 09:33:17;;;;;;;5.80;1.70;;;33.70;81.50;;;;;;5032873;28;20071;-68
2022/07/19 09:35:44;;;;;;;6.72;1.48;;;33.90;80.50;;;;;;5059909;28;20052;-71
2022/07/19 09:38:21;;;;;;;7.05;1.42;;;33.90;80.70;;;;;;5058266;28;20401;-71
2022/07/19 09:40:49;;;;;;;3.33;1.52;;;34.00;76.10;;;;;;5069897;28;20169;-70
2022/07/19 09:43:15;;;;;;;8.38;1.75;;;34.10;78.40;;;;;;5066850;28;20128;-69
2022/07/19 09:45:41;;;;;;;4.63;2.17;;;34.00;77.50;;;;;;5052793;28;20048;-72
2022/07/19 09:48:06;;;;;;;8.43;1.50;;;34.00;75.10;;;;;;5052779;28;20053;-70
2022/07/19 09:50:32;;;;;;;3.03;1.48;;;34.10;77.00;;;;;;5053026;28;20400;-71
2022/07/19 09:53:02;;;;;;;8.45;1.63;;;34.20;76.00;;;;;;5052613;28;20098;-70
2022/07/19 09:55:29;;;;;;;7.10;1.30;;;34.20;74.10;;;;;;5051887;28;20053;-69
2022/07/19 09:57:59;;;;;;;7.53;1.38;;;34.20;74.30;;;;;;5051952;28;20140;-70
2022/07/19 10:00:26;;;;;;;5.88;1.50;;;34.20;73.00;;;;;;5052675;28;20049;-71
2022/07/19 10:02:57;;;;;;;6.88;1.30;;;34.30;73.00;;;;;;5052543;28;20037;-71
2022/07/19 10:05:24;;;;;;;7.03;1.70;;;34.30;71.70;;;;;;5051983;28;20041;-72
2022/07/19 10:07:50;;;;;;;4.97;1.30;;;34.40;72.40;;;;;;5055781;28;20044;-72
2022/07/19 10:10:17;;;;;;;4.70;1.35;;;34.50;72.60;;;;;;5052525;28;20449;-70
2022/07/19 10:12:45;;;;;;;5.60;1.48;;;34.60;71.70;;;;;;5051244;28;20049;-71
2022/07/19 10:15:14;;;;;;;7.45;1.55;;;34.60;71.30;;;;;;5063228;28;20036;-71
2022/07/19 10:18:01;;;;;;;3.00;1.30;;;34.60;70.30;;;;;;5071957;28;20049;-71
2022/07/19 10:20:29;;;;;;;4.20;1.58;;;34.80;68.00;;;;;;5032156;28;20056;-72
2022/07/19 10:23:05;;;;;;;3.17;1.10;;;34.80;69.10;;;;;;5032198;28;20469;-74
2022/07/19 10:25:47;;;;;;;10.05;1.40;;;34.90;68.10;;;;;;5032067;28;20108;-74
2022/07/19 10:28:39;;;;;;;3.28;1.40;;;34.90;65.60;;;;;;5036583;28;20037;-75
2022/07/19 10:31:27;;;;;;;6.07;1.67;;;34.90;65.50;;;;;;5050360;28;20415;-72
2022/07/19 10:34:00;;;;;;;8.50;1.73;;;35.10;65.90;;;;;;5069431;28;20491;-69
2022/07/19 10:36:41;;;;;;;2.92;1.30;;;35.20;66.40;;;;;;5050658;28;20049;-74
2022/07/19 10:39:20;;;;;;;7.22;1.35;;;35.20;65.60;;;;;;5051668;28;20049;-72
2022/07/19 10:42:09;;;;;;;3.65;0.80;;;35.40;65.90;;;;;;5051350;28;20059;-71
2022/07/19 10:44:53;;;;;;;5.95;2.05;;;35.40;65.90;;;;;;5049629;28;20065;-70
2022/07/19 10:47:19;;;;;;;7.28;1.50;;;35.50;66.00;;;;;;5050991;28;20658;-75
2022/07/19 10:49:46;;;;;;;5.05;1.15;;;35.60;65.80;;;;;;5051560;28;20079;-72
2022/07/19 10:52:38;;;;;;;3.53;1.15;;;35.60;65.60;;;;;;5051339;28;20072;-70
2022/07/19 10:57:45;;;;;;;3.03;0.85;;;35.70;62.60;;;;;;5051094;28;20132;-74
2022/07/19 11:00:26;;;;;;;5.25;1.30;;;35.80;62.70;;;;;;5050138;28;20119;-74
2022/07/19 11:03:13;;;;;;;4.07;1.25;;;35.80;62.70;;;;;;5049522;28;20049;-72
2022/07/19 11:05:47;;;;;;;3.97;1.10;;;35.90;62.50;;;;;;5055752;28;20106;-72
2022/07/19 11:08:13;;;;;;;4.15;1.10;;;35.90;62.30;;;;;;5051288;28;20086;-71
2022/07/19 11:10:39;;;;;;;2.45;1.08;;;36.00;62.80;;;;;;5050975;28;20044;-72
2022/07/19 11:13:06;;;;;;;3.83;1.23;;;36.10;62.30;;;;;;5050373;28;20080;-72
2022/07/19 11:15:31;;;;;;;7.95;1.10;;;36.20;62.40;;;;;;5050724;28;20420;-75
2022/07/19 11:18:00;;;;;;;3.72;0.90;;;36.20;62.50;;;;;;5050925;28;20055;-75
2022/07/19 11:20:28;;;;;;;8.30;1.38;;;36.30;62.10;;;;;;5050708;28;20490;-74
2022/07/19 11:22:56;;;;;;;2.40;0.90;;;36.30;62.20;;;;;;5051009;28;20049;-74
2022/07/19 11:25:30;;;;;;;5.20;1.00;;;36.30;59.80;;;;;;5050188;28;20060;-73
2022/07/19 11:27:56;;;;;;;5.47;1.00;;;36.30;60.20;;;;;;5050390;28;20052;-72
2022/07/19 11:30:24;;;;;;;3.75;0.90;;;36.40;59.90;;;;;;5050256;28;20220;-73
2022/07/19 11:32:57;;;;;;;2.33;1.25;;;36.40;59.50;;;;;;5050045;28;20051;-75
2022/07/19 11:35:23;;;;;;;;;;;36.50;58.30;;;;;;5050166;28;20591;-71
2022/07/19 11:37:53;;;;;;;3.55;1.00;;;36.60;58.20;;;;;;5029327;28;19974;-74
2022/07/19 11:40:19;;;;;;;6.38;1.05;;;36.70;59.00;;;;;;5032235;28;20484;-74
2022/07/19 11:42:47;;;;;;;2.85;1.00;;;36.70;59.20;;;;;;5050602;28;20045;-73
2022/07/19 11:45:22;;;;;;;5.28;1.25;;;36.80;59.00;;;;;;5049850;28;20037;-73
2022/07/19 11:47:52;;;;;;;3.72;1.08;;;36.90;58.60;;;;;;5049783;28;20055;-72
2022/07/19 11:50:21;;;;;;;2.83;1.17;;;36.90;59.10;;;;;;5050544;28;20041;-72
2022/07/19 11:52:55;;;;;;;2.50;1.13;;;36.80;58.60;;;;;;5050337;28;20071;-71
2022/07/19 11:55:24;;;;;;;4.78;0.98;;;36.90;58.40;;;;;;5050389;28;20143;-73
2022/07/19 11:57:51;;;;;;;2.80;1.00;;;37.00;57.80;;;;;;5050118;28;20080;-74
2022/07/19 12:00:18;;;;;;;3.00;1.00;;;36.90;58.60;;;;;;5050202;28;20518;-74
2022/07/19 12:03:14;;;;;;;3.30;0.90;;;37.00;58.80;;;;;;5053625;28;20222;-72
2022/07/19 12:05:52;;;;;;;2.20;1.10;;;37.10;58.60;;;;;;5069211;28;20529;-73
2022/07/19 12:08:18;;;;;;;4.13;1.15;;;37.10;58.50;;;;;;5054140;28;20080;-73
2022/07/19 12:10:48;;;;;;;3.78;1.20;;;37.20;58.00;;;;;;5050606;28;20819;-72
2022/07/19 12:13:26;;;;;;;5.53;1.30;;;37.40;58.20;;;;;;5049666;28;20061;-73
2022/07/19 12:15:55;;;;;;;2.75;1.00;;;37.50;58.70;;;;;;5049847;28;20377;-73
2022/07/19 12:18:23;;;;;;;2.63;1.10;;;37.50;58.00;;;;;;5049837;28;20044;-73
2022/07/19 12:21:14;;;;;;;3.13;0.93;;;37.50;57.60;;;;;;5050029;28;20047;-73
2022/07/19 12:23:39;;;;;;;4.88;1.15;;;37.50;56.10;;;;;;5049943;28;20037;-74
2022/07/19 12:26:05;;;;;;;5.55;1.40;;;37.60;57.00;;;;;;5050052;28;20470;-74
2022/07/19 12:28:31;;;;;;;7.60;1.15;;;37.60;56.90;;;;;;5049561;28;20033;-75
2022/07/19 12:31:06;;;;;;;7.68;0.77;;;37.60;56.70;;;;;;5049052;28;20045;-74
2022/07/19 12:33:32;;;;;;;2.05;0.80;;;37.60;55.30;;;;;;5049270;28;20041;-74
2022/07/19 12:35:58;;;;;;;6.95;1.13;;;37.70;55.70;;;;;;5049568;28;20110;-74
2022/07/19 12:38:31;;;;;;;3.03;1.25;;;37.70;55.60;;;;;;5049848;28;20403;-72
2022/07/19 12:41:06;;;;;;;11.38;1.40;;;37.70;55.40;;;;;;5049779;28;20049;-72
2022/07/19 12:43:31;;;;;;;7.35;1.00;;;37.60;55.70;;;;;;5049404;28;20399;-75
2022/07/19 12:46:01;;;;;;;2.95;0.77;;;37.60;56.00;;;;;;5049278;28;20112;-72
2022/07/19 12:48:27;;;;;;;4.20;1.02;;;37.70;55.40;;;;;;5049618;28;20049;-74